Time;durP1;ratioP1;P1;durP2;ratioP2;P2;SDS_P1;SDS_P2;PMS_P1;PMS_P2;Temp;Humidity;BMP_temperature;BMP_pressure;BME280_temperature;BME280_humidity;BME280_pressure;Samples;Min_cycle;Max_cycle;Signal;HPM_P1;HPM_P2
2023/12/17 00:01:36;;;;;;;18.60;10.47;;;;;;;;;;5081039;28;20202;-74
2023/12/17 00:04:02;;;;;;;17.87;10.07;;;;;;;;;;5078087;28;20707;-75
2023/12/17 00:06:28;;;;;;;16.07;9.73;;;;;;;;;;5078343;28;20215;-76
2023/12/17 00:08:54;;;;;;;22.40;11.67;;;;;;;;;;5078764;28;20198;-74
2023/12/17 00:11:20;;;;;;;21.40;9.90;;;;;;;;;;5073935;28;20271;-75
2023/12/17 00:13:46;;;;;;;17.97;10.37;;;;;;;;;;5080894;28;20241;-74
2023/12/17 00:16:12;;;;;;;22.47;10.63;;;;;;;;;;5078185;28;20633;-75
2023/12/17 00:18:38;;;;;;;16.27;9.63;;;;;;;;;;5080866;28;20773;-76
2023/12/17 00:21:04;;;;;;;17.47;10.00;;;;;;;;;;5077860;28;20214;-75
2023/12/17 00:23:30;;;;;;;20.03;10.03;;;;;;;;;;5078671;28;20186;-75
2023/12/17 00:25:56;;;;;;;19.03;11.10;;;;;;;;;;5080025;28;20208;-74
2023/12/17 00:28:22;;;;;;;16.80;9.83;;;;;;;;;;5077440;28;20214;-74
2023/12/17 00:30:50;;;;;;;18.53;9.63;;;;;;;;;;5077564;28;20297;-75
2023/12/17 00:33:16;;;;;;;18.50;9.23;;;;;;;;;;5078032;28;20638;-74
2023/12/17 00:35:42;;;;;;;20.23;10.10;;;;;;;;;;5075441;28;20171;-75
2023/12/17 00:38:08;;;;;;;17.97;9.77;;;;;;;;;;5078494;28;20207;-74
2023/12/17 00:40:34;;;;;;;17.10;10.50;;;;;;;;;;5080890;28;20206;-75
2023/12/17 00:43:00;;;;;;;19.47;10.47;;;;;;;;;;5077529;28;20210;-76
2023/12/17 00:45:26;;;;;;;22.80;9.93;;;;;;;;;;5076593;28;20693;-74
2023/12/17 00:47:52;;;;;;;20.57;9.90;;;;;;;;;;5081907;28;20248;-75
2023/12/17 00:50:18;;;;;;;18.43;10.03;;;;;;;;;;5059529;28;20215;-74
2023/12/17 00:52:44;;;;;;;15.93;9.67;;;;;;;;;;5062500;28;20206;-75
2023/12/17 00:55:10;;;;;;;18.13;9.63;;;;;;;;;;5076824;28;20281;-75
2023/12/17 00:57:36;;;;;;;17.57;10.87;;;;;;;;;;5080638;28;20203;-74
2023/12/17 01:00:03;;;;;;;17.10;10.53;;;;;;;;;;5059556;28;20186;-75
2023/12/17 01:02:29;;;;;;;16.07;9.53;;;;;;;;;;5060044;28;20190;-76
2023/12/17 01:04:55;;;;;;;20.67;9.03;;;;;;;;;;5078323;28;20209;-75
2023/12/17 01:07:21;;;;;;;19.10;8.87;;;;;;;;;;5076096;28;20211;-75
2023/12/17 01:09:47;;;;;;;16.10;10.23;;;;;;;;;;5079316;28;20700;-75
2023/12/17 01:12:14;;;;;;;20.13;9.53;;;;;;;;;;5076835;28;20213;-74
2023/12/17 01:14:40;;;;;;;19.43;10.87;;;;;;;;;;5078040;28;20726;-75
2023/12/17 01:17:07;;;;;;;19.47;9.10;;;;;;;;;;5061159;28;20259;-74
2023/12/17 01:19:34;;;;;;;20.23;10.53;;;;;;;;;;5079410;28;20300;-74
2023/12/17 01:22:02;;;;;;;19.93;9.57;;;;;;;;;;5076987;28;20213;-75
2023/12/17 01:24:28;;;;;;;19.03;9.97;;;;;;;;;;5077453;28;20217;-75
2023/12/17 01:26:54;;;;;;;17.30;9.70;;;;;;;;;;5077252;28;20198;-73
2023/12/17 01:29:20;;;;;;;13.83;8.97;;;;;;;;;;5060386;28;20202;-75
2023/12/17 01:31:46;;;;;;;24.37;10.97;;;;;;;;;;5080645;28;20206;-75
2023/12/17 01:34:12;;;;;;;20.17;10.43;;;;;;;;;;5076044;28;20777;-74
2023/12/17 01:36:38;;;;;;;23.97;10.63;;;;;;;;;;5075891;28;20202;-74
2023/12/17 01:39:04;;;;;;;16.90;9.17;;;;;;;;;;5060259;28;20193;-74
2023/12/17 01:41:30;;;;;;;17.37;9.13;;;;;;;;;;5072772;28;20241;-75
2023/12/17 01:43:56;;;;;;;18.93;9.70;;;;;;;;;;5075829;28;20627;-76
2023/12/17 01:46:22;;;;;;;22.73;11.67;;;;;;;;;;5076632;28;20210;-73
2023/12/17 01:48:48;;;;;;;16.03;10.33;;;;;;;;;;5075517;28;20225;-76
2023/12/17 01:51:14;;;;;;;19.80;10.33;;;;;;;;;;5078252;28;20261;-73
2023/12/17 01:53:40;;;;;;;21.73;10.20;;;;;;;;;;5077136;28;20175;-76
2023/12/17 01:56:07;;;;;;;18.27;9.50;;;;;;;;;;5079610;28;20207;-75
2023/12/17 01:58:33;;;;;;;20.07;9.93;;;;;;;;;;5077011;28;20342;-75
2023/12/17 02:00:59;;;;;;;19.43;10.37;;;;;;;;;;5077229;28;20207;-75
2023/12/17 02:03:25;;;;;;;16.57;9.57;;;;;;;;;;5075730;28;20219;-76
2023/12/17 02:05:51;;;;;;;17.83;10.13;;;;;;;;;;5080086;28;20201;-75
2023/12/17 02:08:18;;;;;;;18.03;10.20;;;;;;;;;;5073467;28;20229;-75
2023/12/17 02:10:44;;;;;;;16.93;10.03;;;;;;;;;;5077886;28;20217;-74
2023/12/17 02:13:10;;;;;;;19.87;9.57;;;;;;;;;;5076115;28;20340;-77
2023/12/17 02:15:37;;;;;;;17.13;9.40;;;;;;;;;;5078686;28;20235;-74
2023/12/17 02:18:03;;;;;;;17.53;9.70;;;;;;;;;;5060298;28;20301;-74
2023/12/17 02:20:29;;;;;;;15.43;10.23;;;;;;;;;;5080665;28;20227;-75
2023/12/17 02:22:58;;;;;;;16.13;9.57;;;;;;;;;;5065934;28;20297;-74
2023/12/17 02:25:24;;;;;;;17.97;10.07;;;;;;;;;;5078274;28;20339;-74
2023/12/17 02:27:50;;;;;;;18.97;9.67;;;;;;;;;;5083095;28;20218;-75
2023/12/17 02:30:16;;;;;;;17.13;9.50;;;;;;;;;;5088275;28;20236;-72
2023/12/17 02:32:42;;;;;;;19.07;9.83;;;;;;;;;;5081963;28;20171;-74
2023/12/17 02:35:08;;;;;;;17.03;9.70;;;;;;;;;;5083798;28;20561;-74
2023/12/17 02:37:34;;;;;;;17.10;10.03;;;;;;;;;;5081327;28;20297;-74
2023/12/17 02:40:00;;;;;;;15.10;9.43;;;;;;;;;;5076161;28;20701;-75
2023/12/17 02:42:26;;;;;;;17.10;10.13;;;;;;;;;;5062493;28;20305;-75
2023/12/17 02:44:52;;;;;;;16.77;9.77;;;;;;;;;;5084132;28;20219;-76
2023/12/17 02:47:18;;;;;;;17.57;9.33;;;;;;;;;;5080995;28;20760;-73
2023/12/17 02:49:44;;;;;;;13.93;8.80;;;;;;;;;;5082400;28;20218;-75
2023/12/17 02:52:11;;;;;;;18.50;9.70;;;;;;;;;;5080485;28;20837;-76
2023/12/17 02:54:37;;;;;;;20.47;9.80;;;;;;;;;;5077206;28;20714;-76
2023/12/17 02:57:03;;;;;;;17.37;9.30;;;;;;;;;;5082566;28;20195;-76
2023/12/17 02:59:29;;;;;;;15.20;9.60;;;;;;;;;;5082335;28;20183;-74
2023/12/17 03:01:55;;;;;;;16.57;9.57;;;;;;;;;;5080177;28;20277;-75
2023/12/17 03:04:21;;;;;;;18.60;9.27;;;;;;;;;;5079611;28;20226;-74
2023/12/17 03:06:47;;;;;;;18.10;10.00;;;;;;;;;;5079976;28;20586;-75
2023/12/17 03:09:14;;;;;;;21.43;10.50;;;;;;;;;;5079898;28;20226;-76
2023/12/17 03:11:40;;;;;;;20.27;9.53;;;;;;;;;;5078874;28;20182;-75
2023/12/17 03:14:06;;;;;;;17.17;9.53;;;;;;;;;;5079835;28;20214;-75
2023/12/17 03:16:32;;;;;;;18.37;10.53;;;;;;;;;;5078099;28;20230;-75
2023/12/17 03:18:58;;;;;;;14.93;8.93;;;;;;;;;;5076474;28;20211;-75
2023/12/17 03:21:26;;;;;;;18.10;9.67;;;;;;;;;;5081195;28;20221;-74
2023/12/17 03:23:53;;;;;;;20.33;9.50;;;;;;;;;;5082668;28;20181;-76
2023/12/17 03:26:19;;;;;;;17.37;9.60;;;;;;;;;;5079116;28;20703;-75
2023/12/17 03:28:45;;;;;;;14.97;9.13;;;;;;;;;;5079861;28;20297;-75
2023/12/17 03:31:14;;;;;;;19.63;9.67;;;;;;;;;;5078177;28;20209;-74
2023/12/17 03:33:41;;;;;;;16.07;9.27;;;;;;;;;;5078038;28;20219;-74
2023/12/17 03:36:07;;;;;;;17.70;9.30;;;;;;;;;;5070692;28;20201;-75
2023/12/17 03:38:33;;;;;;;17.10;9.83;;;;;;;;;;5080657;28;20204;-74
2023/12/17 03:40:59;;;;;;;16.27;9.53;;;;;;;;;;5079819;28;20211;-74
2023/12/17 03:43:25;;;;;;;19.77;10.13;;;;;;;;;;5078103;28;20887;-75
2023/12/17 03:45:51;;;;;;;16.13;9.90;;;;;;;;;;5059205;28;20592;-75
2023/12/17 03:48:17;;;;;;;18.00;9.90;;;;;;;;;;5082832;28;20221;-75
2023/12/17 03:50:43;;;;;;;20.17;9.90;;;;;;;;;;5079519;28;20181;-73
2023/12/17 03:53:10;;;;;;;16.73;9.80;;;;;;;;;;5081551;28;20210;-75
2023/12/17 03:55:39;;;;;;;16.33;10.00;;;;;;;;;;5073716;28;20249;-75
2023/12/17 03:58:05;;;;;;;16.20;9.50;;;;;;;;;;5071203;28;20293;-75
2023/12/17 04:00:31;;;;;;;21.77;10.17;;;;;;;;;;5074348;28;20218;-75
2023/12/17 04:02:57;;;;;;;16.50;9.43;;;;;;;;;;5062590;28;20256;-75
2023/12/17 04:05:27;;;;;;;16.87;9.93;;;;;;;;;;5070218;28;20238;-74
2023/12/17 04:07:53;;;;;;;17.50;9.67;;;;;;;;;;5059627;28;20203;-73
2023/12/17 04:10:19;;;;;;;16.97;10.70;;;;;;;;;;5060303;28;20471;-76
2023/12/17 04:12:45;;;;;;;14.33;8.57;;;;;;;;;;5072213;28;20233;-74
2023/12/17 04:15:11;;;;;;;16.10;9.53;;;;;;;;;;5076030;28;20585;-75
2023/12/17 04:17:38;;;;;;;14.47;8.93;;;;;;;;;;5057994;28;20206;-75
2023/12/17 04:20:04;;;;;;;13.73;9.10;;;;;;;;;;5072942;28;20712;-76
2023/12/17 04:22:30;;;;;;;17.60;9.00;;;;;;;;;;5078763;28;20253;-76
2023/12/17 04:24:56;;;;;;;17.73;10.00;;;;;;;;;;5074086;28;20288;-75
2023/12/17 04:27:22;;;;;;;16.23;9.10;;;;;;;;;;5071520;28;20698;-76
2023/12/17 04:29:48;;;;;;;16.50;9.13;;;;;;;;;;5059670;28;20336;-75
2023/12/17 04:32:14;;;;;;;18.37;10.63;;;;;;;;;;5071560;28;20288;-74
2023/12/17 04:34:40;;;;;;;15.37;9.43;;;;;;;;;;5076014;28;20233;-75
2023/12/17 04:37:06;;;;;;;14.20;8.27;;;;;;;;;;5076449;28;20835;-75
2023/12/17 04:39:32;;;;;;;16.40;8.83;;;;;;;;;;5072658;28;20691;-75
2023/12/17 04:41:58;;;;;;;17.37;9.63;;;;;;;;;;5071819;28;20179;-76
2023/12/17 04:44:24;;;;;;;17.20;9.20;;;;;;;;;;5070929;28;20562;-75
2023/12/17 04:46:50;;;;;;;17.63;9.37;;;;;;;;;;5073330;28;20626;-75
2023/12/17 04:49:16;;;;;;;19.37;10.03;;;;;;;;;;5078318;28;20222;-75
2023/12/17 04:51:43;;;;;;;16.80;9.40;;;;;;;;;;5072661;28;20242;-75
2023/12/17 04:54:09;;;;;;;14.80;9.00;;;;;;;;;;5073988;28;20232;-75
2023/12/17 04:56:35;;;;;;;16.27;10.30;;;;;;;;;;5074009;28;20764;-75
2023/12/17 04:59:01;;;;;;;17.03;9.70;;;;;;;;;;5072158;28;20272;-75
2023/12/17 05:01:26;;;;;;;17.50;10.03;;;;;;;;;;5077545;28;20218;-75
2023/12/17 05:03:52;;;;;;;15.33;9.47;;;;;;;;;;5073452;28;20202;-75
2023/12/17 05:06:19;;;;;;;16.93;9.50;;;;;;;;;;5075776;28;20217;-75
2023/12/17 05:08:45;;;;;;;17.87;9.93;;;;;;;;;;5077572;28;20202;-76
2023/12/17 05:11:11;;;;;;;16.23;9.13;;;;;;;;;;5070727;28;20203;-75
2023/12/17 05:13:37;;;;;;;20.03;10.03;;;;;;;;;;5075226;28;20216;-75
2023/12/17 05:16:03;;;;;;;17.90;10.30;;;;;;;;;;5076377;28;20202;-74
2023/12/17 05:18:29;;;;;;;14.37;8.33;;;;;;;;;;5071282;28;20781;-75
2023/12/17 05:20:55;;;;;;;16.83;8.90;;;;;;;;;;5074892;28;20669;-75
2023/12/17 05:23:21;;;;;;;15.00;8.97;;;;;;;;;;5072970;28;20179;-75
2023/12/17 05:25:47;;;;;;;14.47;8.67;;;;;;;;;;5073970;28;20210;-76
2023/12/17 05:28:13;;;;;;;13.63;7.73;;;;;;;;;;5071467;28;20408;-74
2023/12/17 05:30:39;;;;;;;16.73;9.23;;;;;;;;;;5073197;28;20237;-74
2023/12/17 05:33:05;;;;;;;16.87;8.97;;;;;;;;;;5076716;28;20174;-75
2023/12/17 05:35:31;;;;;;;14.47;8.03;;;;;;;;;;5073674;28;20171;-75
2023/12/17 05:37:57;;;;;;;16.07;8.93;;;;;;;;;;5073156;28;20218;-75
2023/12/17 05:40:23;;;;;;;16.17;8.87;;;;;;;;;;5076232;28;20214;-75
2023/12/17 05:42:49;;;;;;;16.23;8.53;;;;;;;;;;5070175;28;20215;-76
2023/12/17 05:45:15;;;;;;;14.33;8.67;;;;;;;;;;5071774;28;20670;-75
2023/12/17 05:47:41;;;;;;;17.63;8.93;;;;;;;;;;5076262;28;20273;-75
2023/12/17 05:50:07;;;;;;;15.67;7.97;;;;;;;;;;5074810;28;20215;-75
2023/12/17 05:52:34;;;;;;;15.97;9.17;;;;;;;;;;5075808;28;20217;-74
2023/12/17 05:55:00;;;;;;;17.17;7.53;;;;;;;;;;5078388;28;20234;-76
2023/12/17 05:57:26;;;;;;;16.43;8.83;;;;;;;;;;5072060;28;20226;-75
2023/12/17 05:59:52;;;;;;;14.90;8.50;;;;;;;;;;5079536;28;20299;-75
2023/12/17 06:02:18;;;;;;;13.20;7.73;;;;;;;;;;5080252;28;20240;-75
2023/12/17 06:04:44;;;;;;;13.83;7.77;;;;;;;;;;5076620;28;20634;-74
2023/12/17 06:07:10;;;;;;;15.93;9.17;;;;;;;;;;5074751;28;20297;-75
2023/12/17 06:09:36;;;;;;;13.37;8.77;;;;;;;;;;5073231;28;20222;-75
2023/12/17 06:12:02;;;;;;;13.67;8.80;;;;;;;;;;5078542;28;20179;-75
2023/12/17 06:14:28;;;;;;;12.77;7.40;;;;;;;;;;5081576;28;20202;-75
2023/12/17 06:16:54;;;;;;;12.33;8.23;;;;;;;;;;5078440;28;20267;-75
2023/12/17 06:19:20;;;;;;;14.43;7.67;;;;;;;;;;5083660;28;20206;-73
2023/12/17 06:21:48;;;;;;;14.90;7.93;;;;;;;;;;5076749;28;20234;-73
2023/12/17 06:24:14;;;;;;;15.33;8.23;;;;;;;;;;5079942;28;20211;-72
2023/12/17 06:26:40;;;;;;;13.47;7.70;;;;;;;;;;5082636;28;20211;-73
2023/12/17 06:29:12;;;;;;;14.03;7.53;;;;;;;;;;5080436;28;20559;-73
2023/12/17 06:31:38;;;;;;;14.33;7.70;;;;;;;;;;5081138;28;20217;-74
2023/12/17 06:34:04;;;;;;;11.60;7.40;;;;;;;;;;5075629;28;20199;-75
2023/12/17 06:36:30;;;;;;;14.57;7.70;;;;;;;;;;5077579;28;20275;-72
2023/12/17 06:38:56;;;;;;;11.97;6.97;;;;;;;;;;5083531;28;20190;-72
2023/12/17 06:41:22;;;;;;;14.10;7.47;;;;;;;;;;5080151;28;20175;-72
2023/12/17 06:43:48;;;;;;;14.70;7.73;;;;;;;;;;5075753;28;20221;-75
2023/12/17 06:46:17;;;;;;;13.57;6.97;;;;;;;;;;5079051;28;20242;-73
2023/12/17 06:48:44;;;;;;;12.80;7.20;;;;;;;;;;5081918;28;20221;-73
2023/12/17 06:51:13;;;;;;;11.53;7.03;;;;;;;;;;5082465;28;20286;-74
2023/12/17 06:53:39;;;;;;;11.87;7.43;;;;;;;;;;5080384;28;20183;-74
2023/12/17 06:56:05;;;;;;;10.70;6.30;;;;;;;;;;5078168;28;20578;-74
2023/12/17 06:58:32;;;;;;;12.20;7.07;;;;;;;;;;5061573;28;20217;-74
2023/12/17 07:00:58;;;;;;;9.47;6.37;;;;;;;;;;5080141;28;20210;-74
2023/12/17 07:03:24;;;;;;;14.73;6.97;;;;;;;;;;5069891;28;20272;-74
2023/12/17 07:05:50;;;;;;;10.10;6.83;;;;;;;;;;5079623;28;20628;-75
2023/12/17 07:08:16;;;;;;;11.60;6.73;;;;;;;;;;5079707;28;20219;-74
2023/12/17 07:10:42;;;;;;;12.13;7.57;;;;;;;;;;5080742;28;20229;-73
2023/12/17 07:13:08;;;;;;;10.73;6.30;;;;;;;;;;5077392;28;20260;-73
2023/12/17 07:15:34;;;;;;;10.47;5.97;;;;;;;;;;5082843;28;20838;-73
2023/12/17 07:18:00;;;;;;;11.57;7.10;;;;;;;;;;5079811;28;20186;-74
2023/12/17 07:20:26;;;;;;;10.07;6.47;;;;;;;;;;5062218;28;20186;-75
2023/12/17 07:22:52;;;;;;;12.83;5.93;;;;;;;;;;5077506;28;20203;-73
2023/12/17 07:25:19;;;;;;;10.57;6.20;;;;;;;;;;5069732;28;20231;-74
2023/12/17 07:27:45;;;;;;;11.83;6.67;;;;;;;;;;5081625;28;20259;-74
2023/12/17 07:30:12;;;;;;;11.10;6.83;;;;;;;;;;5080893;28;20211;-74
2023/12/17 07:32:38;;;;;;;9.70;5.87;;;;;;;;;;5080741;28;20195;-75
2023/12/17 07:35:07;;;;;;;11.27;6.07;;;;;;;;;;5076164;28;20203;-75
2023/12/17 07:37:33;;;;;;;8.00;5.87;;;;;;;;;;5076605;28;20330;-73
2023/12/17 07:39:59;;;;;;;9.50;6.20;;;;;;;;;;5078810;28;20218;-75
2023/12/17 07:42:25;;;;;;;10.43;6.00;;;;;;;;;;5081678;28;20206;-74
2023/12/17 07:44:51;;;;;;;12.07;6.50;;;;;;;;;;5078508;28;20600;-75
2023/12/17 07:47:17;;;;;;;8.93;6.00;;;;;;;;;;5079138;28;20298;-74
2023/12/17 07:49:43;;;;;;;7.67;5.17;;;;;;;;;;5080650;28;20719;-74
2023/12/17 07:52:09;;;;;;;8.83;5.17;;;;;;;;;;5079738;28;20202;-75
2023/12/17 07:54:35;;;;;;;8.87;4.93;;;;;;;;;;5074970;28;20234;-75
2023/12/17 07:57:01;;;;;;;8.17;5.30;;;;;;;;;;5079727;28;20203;-74
2023/12/17 07:59:27;;;;;;;9.50;5.47;;;;;;;;;;5079721;28;20696;-74
2023/12/17 08:01:53;;;;;;;9.83;5.67;;;;;;;;;;5077671;28;20587;-75
2023/12/17 08:04:19;;;;;;;7.63;5.23;;;;;;;;;;5081619;28;20233;-76
2023/12/17 08:06:45;;;;;;;9.50;5.50;;;;;;;;;;5074096;28;20227;-75
2023/12/17 08:09:11;;;;;;;7.40;5.20;;;;;;;;;;5081025;28;20210;-75
2023/12/17 08:11:37;;;;;;;10.27;5.60;;;;;;;;;;5079039;28;20175;-76
2023/12/17 08:14:03;;;;;;;8.20;5.07;;;;;;;;;;5078227;28;20219;-74
2023/12/17 08:16:30;;;;;;;11.37;5.63;;;;;;;;;;5078948;28;20279;-75
2023/12/17 08:18:56;;;;;;;9.20;5.20;;;;;;;;;;5077904;28;20589;-74
2023/12/17 08:21:22;;;;;;;8.47;5.27;;;;;;;;;;5069184;28;20207;-74
2023/12/17 08:23:48;;;;;;;7.00;4.77;;;;;;;;;;5079232;28;20179;-75
2023/12/17 08:26:14;;;;;;;9.97;5.80;;;;;;;;;;5077975;28;20248;-74
2023/12/17 08:28:41;;;;;;;8.40;4.83;;;;;;;;;;5081578;28;20210;-74
2023/12/17 08:31:09;;;;;;;8.00;5.00;;;;;;;;;;5079899;28;20222;-75
2023/12/17 08:33:36;;;;;;;8.80;5.17;;;;;;;;;;5078143;28;20216;-74
2023/12/17 08:36:02;;;;;;;7.67;4.80;;;;;;;;;;5072966;28;20194;-74
2023/12/17 08:38:28;;;;;;;7.93;5.13;;;;;;;;;;5058818;28;20273;-75
2023/12/17 08:40:54;;;;;;;8.53;5.60;;;;;;;;;;5077608;28;20292;-75
2023/12/17 08:43:20;;;;;;;8.40;5.47;;;;;;;;;;5076069;28;20215;-75
2023/12/17 08:45:46;;;;;;;7.53;5.23;;;;;;;;;;5068546;28;20218;-75
2023/12/17 08:48:13;;;;;;;7.10;4.67;;;;;;;;;;5060137;28;20592;-74
2023/12/17 08:50:39;;;;;;;7.33;4.40;;;;;;;;;;5082595;28;20307;-76
2023/12/17 08:53:05;;;;;;;7.83;5.07;;;;;;;;;;5080455;28;20672;-76
2023/12/17 08:55:31;;;;;;;7.60;5.30;;;;;;;;;;5080506;28;20222;-76
2023/12/17 08:57:57;;;;;;;8.27;5.27;;;;;;;;;;5076842;28;20214;-75
2023/12/17 09:00:23;;;;;;;9.23;4.47;;;;;;;;;;5078808;28;20627;-76
2023/12/17 09:02:49;;;;;;;7.77;4.67;;;;;;;;;;5078342;28;20188;-76
2023/12/17 09:05:15;;;;;;;7.07;4.97;;;;;;;;;;5077115;28;20310;-76
2023/12/17 09:07:41;;;;;;;7.17;5.33;;;;;;;;;;5080342;28;20213;-75
2023/12/17 09:10:07;;;;;;;7.03;4.87;;;;;;;;;;5078111;28;20218;-76
2023/12/17 09:12:33;;;;;;;7.77;4.73;;;;;;;;;;5059739;28;20210;-74
2023/12/17 09:15:00;;;;;;;6.53;4.53;;;;;;;;;;5077446;28;20187;-74
2023/12/17 09:17:26;;;;;;;8.07;5.73;;;;;;;;;;5068297;28;20708;-74
2023/12/17 09:19:52;;;;;;;6.93;4.63;;;;;;;;;;5081683;28;20213;-74
2023/12/17 09:22:18;;;;;;;7.13;5.07;;;;;;;;;;5076386;28;20747;-75
2023/12/17 09:24:44;;;;;;;10.47;5.53;;;;;;;;;;5077181;28;20318;-74
2023/12/17 09:27:11;;;;;;;6.17;4.30;;;;;;;;;;5077049;28;20207;-74
2023/12/17 09:29:37;;;;;;;7.70;4.87;;;;;;;;;;5065677;28;20213;-74
2023/12/17 09:32:03;;;;;;;9.50;5.43;;;;;;;;;;5080687;28;20206;-74
2023/12/17 09:34:29;;;;;;;6.13;4.00;;;;;;;;;;5083324;28;20331;-74
2023/12/17 09:36:56;;;;;;;6.60;4.83;;;;;;;;;;5076597;28;20293;-74
2023/12/17 09:39:22;;;;;;;6.27;4.63;;;;;;;;;;5079161;28;20290;-75
2023/12/17 09:41:48;;;;;;;6.93;5.10;;;;;;;;;;5067705;28;20320;-75
2023/12/17 09:44:14;;;;;;;7.40;4.73;;;;;;;;;;5080827;28;20257;-74
2023/12/17 09:46:40;;;;;;;6.67;4.10;;;;;;;;;;5081386;28;20728;-75
2023/12/17 09:49:06;;;;;;;7.40;4.93;;;;;;;;;;5081054;28;20224;-75
2023/12/17 09:51:36;;;;;;;6.27;4.20;;;;;;;;;;5080936;28;20588;-73
2023/12/17 09:54:05;;;;;;;6.43;5.10;;;;;;;;;;5081195;28;20194;-73
2023/12/17 09:56:31;;;;;;;6.90;4.70;;;;;;;;;;5084254;28;20645;-73
2023/12/17 09:58:57;;;;;;;6.73;4.97;;;;;;;;;;5079251;28;20239;-74
2023/12/17 10:01:24;;;;;;;5.90;4.17;;;;;;;;;;5082293;28;20572;-74
2023/12/17 10:03:50;;;;;;;6.40;4.47;;;;;;;;;;5080442;28;20220;-75
2023/12/17 10:06:19;;;;;;;5.83;4.13;;;;;;;;;;5078046;28;20287;-74
2023/12/17 10:08:45;;;;;;;6.43;4.10;;;;;;;;;;5083077;28;20206;-73
2023/12/17 10:11:11;;;;;;;7.20;4.33;;;;;;;;;;5080288;28;20618;-73
2023/12/17 10:13:37;;;;;;;9.27;4.73;;;;;;;;;;5081669;28;20217;-75
2023/12/17 10:16:04;;;;;;;6.40;4.33;;;;;;;;;;5061609;28;20226;-74
2023/12/17 10:18:30;;;;;;;7.13;4.67;;;;;;;;;;5081075;28;20272;-74
2023/12/17 10:20:56;;;;;;;5.40;3.67;;;;;;;;;;5080564;28;20687;-74
2023/12/17 10:23:22;;;;;;;5.90;4.47;;;;;;;;;;5070766;28;20685;-73
2023/12/17 10:25:58;;;;;;;5.80;3.87;;;;;;;;;;5083886;28;20238;-75
2023/12/17 10:28:24;;;;;;;6.33;4.63;;;;;;;;;;5082323;28;20207;-74
2023/12/17 10:30:51;;;;;;;8.53;4.17;;;;;;;;;;5081886;28;20271;-75
2023/12/17 10:33:20;;;;;;;8.57;4.77;;;;;;;;;;5060981;28;20214;-75
2023/12/17 10:35:46;;;;;;;7.03;4.37;;;;;;;;;;5078077;28;20194;-74
2023/12/17 10:38:13;;;;;;;7.70;4.03;;;;;;;;;;5078458;28;20207;-73
2023/12/17 10:40:41;;;;;;;7.00;4.33;;;;;;;;;;5070059;28;20678;-75
2023/12/17 10:43:07;;;;;;;7.33;4.60;;;;;;;;;;5064407;28;20226;-74
2023/12/17 10:45:34;;;;;;;6.33;4.23;;;;;;;;;;5072388;28;20203;-74
2023/12/17 10:48:01;;;;;;;7.47;4.60;;;;;;;;;;5078900;28;20182;-74
2023/12/17 10:50:28;;;;;;;5.63;4.07;;;;;;;;;;5080400;28;20207;-74
2023/12/17 10:52:54;;;;;;;6.57;4.30;;;;;;;;;;5071654;28;20222;-74
2023/12/17 10:55:22;;;;;;;6.17;4.33;;;;;;;;;;5061918;28;20284;-75
2023/12/17 10:57:51;;;;;;;6.23;4.13;;;;;;;;;;5082548;28;20218;-74
2023/12/17 11:00:20;;;;;;;7.67;4.57;;;;;;;;;;5078183;28;20199;-75
2023/12/17 11:02:47;;;;;;;5.50;3.63;;;;;;;;;;5080518;28;20183;-75
2023/12/17 11:05:13;;;;;;;6.37;3.90;;;;;;;;;;5079716;28;20294;-74
2023/12/17 11:07:39;;;;;;;5.40;3.90;;;;;;;;;;5080752;28;20216;-74
2023/12/17 11:10:07;;;;;;;7.57;4.87;;;;;;;;;;5079042;28;20218;-74
2023/12/17 11:12:34;;;;;;;7.63;4.40;;;;;;;;;;5072116;28;20313;-74
2023/12/17 11:15:00;;;;;;;6.93;4.27;;;;;;;;;;5061491;28;20186;-74
2023/12/17 11:17:27;;;;;;;6.67;4.10;;;;;;;;;;5079647;28;20256;-75
2023/12/17 11:19:56;;;;;;;6.77;4.80;;;;;;;;;;5081926;28;20203;-74
2023/12/17 11:22:23;;;;;;;4.47;3.73;;;;;;;;;;5078364;28;20263;-75
2023/12/17 11:24:59;;;;;;;7.13;4.07;;;;;;;;;;5081762;28;20570;-75
2023/12/17 11:27:26;;;;;;;5.97;4.13;;;;;;;;;;5079940;28;20222;-75
2023/12/17 11:29:52;;;;;;;6.00;4.07;;;;;;;;;;5076496;28;20213;-74
2023/12/17 11:32:20;;;;;;;6.23;4.23;;;;;;;;;;5079346;28;20171;-75
2023/12/17 11:34:49;;;;;;;5.50;4.00;;;;;;;;;;5080907;28;20206;-74
2023/12/17 11:37:19;;;;;;;7.03;4.40;;;;;;;;;;5072976;28;20290;-74
2023/12/17 11:39:48;;;;;;;6.27;4.57;;;;;;;;;;5078267;28;20203;-75
2023/12/17 11:42:15;;;;;;;6.73;4.50;;;;;;;;;;5062531;28;20683;-74
2023/12/17 11:44:48;;;;;;;6.97;4.13;;;;;;;;;;5078249;28;20171;-76
2023/12/17 11:47:14;;;;;;;7.40;4.73;;;;;;;;;;5080767;28;20211;-75
2023/12/17 11:49:40;;;;;;;6.47;3.73;;;;;;;;;;5061069;28;20214;-76
2023/12/17 11:52:18;;;;;;;7.50;4.27;;;;;;;;;;5079211;28;20744;-74
2023/12/17 11:54:44;;;;;;;7.00;4.33;;;;;;;;;;5075040;28;20213;-74
2023/12/17 11:57:27;;;;;;;5.77;3.93;;;;;;;;;;5079907;28;20190;-74
2023/12/17 11:59:54;;;;;;;5.93;4.37;;;;;;;;;;5077072;28;20171;-74
2023/12/17 12:02:21;;;;;;;6.23;3.90;;;;;;;;;;5078466;28;20193;-75
2023/12/17 12:04:48;;;;;;;4.70;3.80;;;;;;;;;;5068125;28;20207;-75
2023/12/17 12:07:17;;;;;;;6.40;4.20;;;;;;;;;;5078915;28;20210;-74
2023/12/17 12:09:44;;;;;;;6.90;4.10;;;;;;;;;;5079480;28;20222;-74
2023/12/17 12:12:16;;;;;;;6.33;4.20;;;;;;;;;;5078289;28;20192;-74
2023/12/17 12:14:44;;;;;;;7.93;4.07;;;;;;;;;;5074810;28;20190;-74
2023/12/17 12:17:30;;;;;;;8.40;3.90;;;;;;;;;;5079743;28;20218;-75
2023/12/17 12:19:56;;;;;;;6.20;4.20;;;;;;;;;;5080274;28;20202;-74
2023/12/17 12:22:27;;;;;;;5.97;3.90;;;;;;;;;;5076069;28;20210;-75
2023/12/17 12:24:57;;;;;;;6.87;4.73;;;;;;;;;;5081159;28;20669;-75
2023/12/17 12:27:23;;;;;;;5.97;3.93;;;;;;;;;;5077103;28;20211;-75
2023/12/17 12:29:49;;;;;;;6.00;4.47;;;;;;;;;;5080450;28;20206;-75
2023/12/17 12:32:27;;;;;;;7.77;4.23;;;;;;;;;;5078024;28;20234;-75
2023/12/17 12:34:55;;;;;;;5.63;4.37;;;;;;;;;;5075437;28;20795;-75
2023/12/17 12:37:33;;;;;;;6.23;4.13;;;;;;;;;;5072925;28;20284;-75
2023/12/17 12:40:00;;;;;;;7.87;4.43;;;;;;;;;;5077892;28;20672;-75
2023/12/17 12:42:26;;;;;;;7.33;5.13;;;;;;;;;;5075945;28;20222;-75
2023/12/17 12:44:52;;;;;;;5.80;4.17;;;;;;;;;;5080692;28;20177;-73
2023/12/17 12:47:18;;;;;;;11.93;6.97;;;;;;;;;;5073660;28;20274;-74
2023/12/17 12:49:44;;;;;;;5.50;4.13;;;;;;;;;;5080394;28;20211;-75
2023/12/17 12:52:10;;;;;;;6.33;4.10;;;;;;;;;;5078802;28;20591;-75
2023/12/17 12:54:36;;;;;;;7.30;4.83;;;;;;;;;;5076800;28;20756;-74
2023/12/17 12:57:03;;;;;;;6.73;5.00;;;;;;;;;;5060156;28;20281;-73
2023/12/17 12:59:28;;;;;;;7.03;4.03;;;;;;;;;;5077934;28;20179;-74
2023/12/17 13:01:55;;;;;;;6.43;4.17;;;;;;;;;;5078184;28;20735;-74
2023/12/17 13:04:21;;;;;;;6.33;4.03;;;;;;;;;;5077157;28;20202;-73
2023/12/17 13:06:47;;;;;;;5.37;4.00;;;;;;;;;;5077083;28;20223;-74
2023/12/17 13:09:14;;;;;;;8.27;3.90;;;;;;;;;;5079566;28;20238;-74
2023/12/17 13:11:40;;;;;;;6.43;4.33;;;;;;;;;;5079767;28;20193;-74
2023/12/17 13:14:06;;;;;;;5.93;3.83;;;;;;;;;;5077609;28;20303;-74
2023/12/17 13:16:34;;;;;;;6.27;4.47;;;;;;;;;;5074716;28;20230;-73
2023/12/17 13:19:00;;;;;;;5.90;4.10;;;;;;;;;;5077459;28;20264;-74
2023/12/17 13:21:26;;;;;;;5.67;3.90;;;;;;;;;;5077781;28;20297;-74
2023/12/17 13:23:52;;;;;;;5.53;3.90;;;;;;;;;;5080033;28;20684;-73
2023/12/17 13:26:18;;;;;;;12.13;6.57;;;;;;;;;;5077261;28;20259;-73
2023/12/17 13:28:44;;;;;;;5.80;3.90;;;;;;;;;;5077686;28;20214;-75
2023/12/17 13:31:10;;;;;;;5.50;3.87;;;;;;;;;;5078377;28;20694;-74
2023/12/17 13:33:36;;;;;;;6.67;3.70;;;;;;;;;;5076048;28;20332;-74
2023/12/17 13:36:03;;;;;;;5.07;4.07;;;;;;;;;;5079789;28;20194;-73
2023/12/17 13:38:29;;;;;;;5.17;3.63;;;;;;;;;;5077867;28;20175;-75
2023/12/17 13:40:55;;;;;;;6.27;3.97;;;;;;;;;;5077715;28;20234;-74
2023/12/17 13:43:22;;;;;;;7.70;3.90;;;;;;;;;;5076115;28;20202;-73
2023/12/17 13:45:48;;;;;;;5.50;3.70;;;;;;;;;;5076839;28;20210;-76
2023/12/17 13:48:15;;;;;;;5.60;3.20;;;;;;;;;;5061240;28;20210;-74
2023/12/17 13:50:44;;;;;;;8.53;4.00;;;;;;;;;;5078725;28;20167;-74
2023/12/17 13:53:11;;;;;;;5.67;3.67;;;;;;;;;;5058556;28;20281;-74
2023/12/17 13:55:37;;;;;;;5.90;3.50;;;;;;;;;;5075198;28;20238;-74
2023/12/17 13:58:03;;;;;;;5.63;3.23;;;;;;;;;;5078824;28;20205;-73
2023/12/17 14:00:29;;;;;;;5.17;3.17;;;;;;;;;;5077527;28;20221;-74
2023/12/17 14:02:55;;;;;;;4.77;3.20;;;;;;;;;;5067462;28;20179;-75
2023/12/17 14:05:21;;;;;;;5.57;3.53;;;;;;;;;;5081054;28;20182;-73
2023/12/17 14:07:47;;;;;;;4.83;3.03;;;;;;;;;;5067478;28;20226;-74
2023/12/17 14:10:13;;;;;;;6.97;3.80;;;;;;;;;;5078843;28;20229;-74
2023/12/17 14:12:40;;;;;;;5.53;3.40;;;;;;;;;;5077124;28;20226;-75
2023/12/17 14:15:06;;;;;;;4.57;2.97;;;;;;;;;;5081756;28;20182;-75
2023/12/17 14:17:33;;;;;;;4.50;3.17;;;;;;;;;;5080524;28;20289;-73
2023/12/17 14:19:59;;;;;;;5.40;3.13;;;;;;;;;;5081915;28;20214;-74
2023/12/17 14:22:27;;;;;;;5.20;3.00;;;;;;;;;;5082541;28;20229;-74
2023/12/17 14:24:53;;;;;;;5.60;3.93;;;;;;;;;;5077476;28;20289;-73
2023/12/17 14:27:19;;;;;;;3.97;2.70;;;;;;;;;;5083398;28;20366;-75
2023/12/17 14:29:45;;;;;;;4.00;3.00;;;;;;;;;;5082202;28;20243;-75